createdAt,value
2019-04-16T00:02:48.509Z,10.93
2019-04-16T00:05:45.349Z,10.68
2019-04-16T00:08:28.194Z,10.10
2019-04-16T00:11:06.587Z,10.60
2019-04-16T00:14:08.799Z,11.33
2019-04-16T00:16:41.411Z,10.82
2019-04-16T00:19:13.189Z,9.55
2019-04-16T00:22:03.484Z,10.25
2019-04-16T00:24:37.442Z,10.25
2019-04-16T00:27:08.776Z,9.15
2019-04-16T00:29:40.149Z,10.13
2019-04-16T00:32:17.023Z,10.18
2019-04-16T00:34:48.712Z,9.50
2019-04-16T00:37:21.347Z,9.43
2019-04-16T00:39:55.506Z,9.40
2019-04-16T00:42:25.982Z,9.40
2019-04-16T00:44:57.562Z,9.03
2019-04-16T00:47:29.239Z,7.90
2019-04-16T00:50:00.632Z,9.15
2019-04-16T00:52:36.706Z,8.33
2019-04-16T00:55:05.661Z,8.90
2019-04-16T00:57:37.141Z,9.73
2019-04-16T01:00:09.394Z,10.50
2019-04-16T01:02:41.282Z,11.30
2019-04-16T01:05:13.886Z,10.30
2019-04-16T01:07:45.404Z,11.18
2019-04-16T01:10:17.017Z,12.37
2019-04-16T01:12:48.612Z,11.40
2019-04-16T01:15:19.961Z,11.95
2019-04-16T01:17:51.425Z,11.50
2019-04-16T01:20:23.261Z,13.70
2019-04-16T01:22:54.620Z,13.08
2019-04-16T01:25:26.388Z,13.25
2019-04-16T01:28:01.277Z,12.73
2019-04-16T01:31:00.801Z,13.45
2019-04-16T01:33:47.784Z,12.95
2019-04-16T01:36:41.111Z,14.40
2019-04-16T01:39:18.004Z,14.13
2019-04-16T01:41:46.696Z,13.93
2019-04-16T01:44:18.155Z,13.28
2019-04-16T01:46:49.642Z,13.60
2019-04-16T01:49:21.427Z,14.53
2019-04-16T01:51:53.122Z,13.30
2019-04-16T01:54:24.414Z,13.40
2019-04-16T01:56:59.507Z,14.07
2019-04-16T01:59:29.545Z,13.80
2019-04-16T02:02:01.096Z,14.13
2019-04-16T02:04:32.640Z,13.13
2019-04-16T02:07:04.448Z,13.55
2019-04-16T02:09:35.854Z,14.20
2019-04-16T02:12:07.898Z,12.65
2019-04-16T02:14:41.007Z,12.28
2019-04-16T02:17:12.533Z,12.95
2019-04-16T02:19:44.081Z,12.63
2019-04-16T02:22:16.122Z,12.95
2019-04-16T02:24:48.578Z,13.05
2019-04-16T02:27:20.002Z,12.95
2019-04-16T02:29:53.691Z,12.63
2019-04-16T02:32:24.981Z,12.90
2019-04-16T02:34:56.676Z,12.05
2019-04-16T02:37:28.206Z,13.72
2019-04-16T02:40:01.045Z,12.95
2019-04-16T02:42:33.839Z,13.22
2019-04-16T02:45:05.757Z,13.70
2019-04-16T02:47:41.932Z,13.78
2019-04-16T02:50:15.030Z,13.28
2019-04-16T02:52:53.955Z,13.43
2019-04-16T02:55:44.360Z,13.78
2019-04-16T02:58:33.990Z,13.10
2019-04-16T03:01:28.766Z,12.47
2019-04-16T03:04:14.167Z,12.88
2019-04-16T03:06:45.835Z,13.25
2019-04-16T03:09:17.512Z,12.47
2019-04-16T03:11:49.337Z,13.98
2019-04-16T03:14:21.103Z,13.20
2019-04-16T03:17:20.686Z,13.08
2019-04-16T03:19:52.553Z,13.40
2019-04-16T03:22:24.107Z,13.38
2019-04-16T03:24:56.075Z,13.53
2019-04-16T03:27:27.687Z,12.53
2019-04-16T03:30:03.372Z,12.20
2019-04-16T03:32:36.481Z,13.30
2019-04-16T03:35:08.384Z,14.78
2019-04-16T03:37:39.985Z,12.63
2019-04-16T03:40:17.730Z,12.98
2019-04-16T03:42:45.087Z,14.13
2019-04-16T03:45:16.726Z,13.32
2019-04-16T03:47:51.525Z,14.43
2019-04-16T03:50:22.035Z,12.88
2019-04-16T03:52:53.455Z,14.00
2019-04-16T03:55:26.217Z,14.50
2019-04-16T03:57:58.245Z,13.20
2019-04-16T04:00:29.889Z,13.53
2019-04-16T04:03:01.699Z,13.10
2019-04-16T04:05:34.916Z,13.72
2019-04-16T04:08:06.307Z,13.03
2019-04-16T04:10:38.007Z,13.53
2019-04-16T04:13:09.845Z,13.68
2019-04-16T04:15:41.278Z,13.72
2019-04-16T04:18:13.134Z,13.40
2019-04-16T04:20:49.619Z,14.30
2019-04-16T04:23:18.760Z,13.62
2019-04-16T04:25:50.286Z,14.40
2019-04-16T04:28:21.984Z,13.65
2019-04-16T04:30:53.617Z,14.58
2019-04-16T04:33:41.385Z,14.40
2019-04-16T04:36:11.804Z,14.68
2019-04-16T04:38:44.306Z,14.47
2019-04-16T04:41:16.066Z,14.10
2019-04-16T04:43:47.620Z,16.93
2019-04-16T04:46:19.122Z,15.45
2019-04-16T04:48:54.937Z,17.00
2019-04-16T04:51:23.879Z,13.10
2019-04-16T04:53:55.484Z,14.13
2019-04-16T04:56:27.944Z,13.65
2019-04-16T04:59:02.512Z,14.73
2019-04-16T05:01:32.955Z,13.70
2019-04-16T05:04:26.035Z,14.47
2019-04-16T05:07:00.137Z,14.40
2019-04-16T05:09:35.580Z,13.22
2019-04-16T05:12:07.903Z,14.47
2019-04-16T05:14:41.175Z,14.03
2019-04-16T05:17:12.859Z,14.85
2019-04-16T05:19:44.554Z,15.55
2019-04-16T05:22:20.586Z,14.73
2019-04-16T05:24:48.880Z,14.78
2019-04-16T05:27:21.275Z,15.00
2019-04-16T05:29:53.214Z,14.40
2019-04-16T05:32:26.028Z,14.75
2019-04-16T05:34:57.990Z,15.43
2019-04-16T05:37:30.073Z,14.25
2019-04-16T05:40:01.855Z,14.98
2019-04-16T05:42:33.639Z,14.87
2019-04-16T05:45:06.395Z,15.40
2019-04-16T05:47:38.464Z,15.25
2019-04-16T05:50:10.179Z,14.70
2019-04-16T05:52:42.039Z,15.43
2019-04-16T05:55:31.484Z,16.23
2019-04-16T05:58:03.315Z,15.78
2019-04-16T06:01:00.712Z,14.98
2019-04-16T06:03:32.546Z,15.40
2019-04-16T06:06:04.421Z,16.35
2019-04-16T06:08:40.727Z,15.70
2019-04-16T06:11:09.338Z,16.37
2019-04-16T06:13:58.659Z,15.60
2019-04-16T06:16:36.162Z,15.93
2019-04-16T06:19:31.839Z,15.65
2019-04-16T06:22:30.816Z,14.98
2019-04-16T06:25:21.273Z,15.83
2019-04-16T06:28:20.727Z,15.70
2019-04-16T06:31:18.678Z,15.75
2019-04-16T06:34:09.992Z,16.42
2019-04-16T06:37:09.485Z,16.82
2019-04-16T06:40:00.979Z,16.32
2019-04-16T06:42:47.230Z,17.23
2019-04-16T06:45:28.662Z,17.92
2019-04-16T06:48:13.160Z,17.60
2019-04-16T06:51:12.503Z,16.45
2019-04-16T06:53:56.802Z,17.23
2019-04-16T06:56:42.753Z,17.07
2019-04-16T06:59:30.428Z,17.57
2019-04-16T07:02:43.105Z,17.42
2019-04-16T07:05:39.302Z,23.32
2019-04-16T07:08:37.444Z,17.52
2019-04-16T07:11:03.660Z,18.20
2019-04-16T07:13:35.342Z,16.95
2019-04-16T07:16:06.831Z,16.40
2019-04-16T07:18:39.231Z,17.17
2019-04-16T07:21:10.898Z,16.30
2019-04-16T07:23:46.146Z,16.85
2019-04-16T07:26:15.746Z,16.20
2019-04-16T07:28:58.773Z,17.30
2019-04-16T07:31:34.496Z,15.83
2019-04-16T07:34:27.876Z,15.90
2019-04-16T07:37:06.444Z,15.50
2019-04-16T07:40:10.398Z,15.20
2019-04-16T07:43:18.209Z,15.80
2019-04-16T07:45:57.133Z,14.60
2019-04-16T07:49:01.620Z,13.67
2019-04-16T07:51:40.885Z,14.10
2019-04-16T07:54:29.420Z,14.40
2019-04-16T07:57:00.421Z,16.43
2019-04-16T07:59:32.254Z,13.23
2019-04-16T08:02:04.780Z,13.00
2019-04-16T08:04:36.486Z,11.83
2019-04-16T08:07:08.013Z,9.57
2019-04-16T08:09:39.499Z,12.00
2019-04-16T08:12:28.692Z,12.53
2019-04-16T08:14:44.104Z,12.50
2019-04-16T08:17:15.539Z,11.10
2019-04-16T08:19:49.093Z,10.30
2019-04-16T08:22:20.110Z,11.53
2019-04-16T08:24:59.611Z,11.47
2019-04-16T08:27:29.993Z,12.53
2019-04-16T08:30:03.498Z,12.93
2019-04-16T08:32:34.706Z,12.23
2019-04-16T08:35:06.531Z,13.37
2019-04-16T08:37:48.382Z,12.07
2019-04-16T08:40:12.541Z,12.23
2019-04-16T08:42:45.136Z,12.33
2019-04-16T08:45:16.648Z,11.70
2019-04-16T08:47:47.833Z,13.00
2019-04-16T08:50:19.246Z,12.23
2019-04-16T08:52:50.421Z,13.63
2019-04-16T08:55:23.615Z,12.47
2019-04-16T08:57:55.043Z,13.80
2019-04-16T09:00:26.296Z,13.33
2019-04-16T09:02:59.090Z,11.80
2019-04-16T09:05:30.695Z,11.37
2019-04-16T09:08:13.867Z,11.90
2019-04-16T09:10:45.245Z,12.13
2019-04-16T09:13:19.071Z,12.33
2019-04-16T09:15:50.343Z,11.77
2019-04-16T09:18:28.070Z,12.13
2019-04-16T09:20:59.404Z,11.37
2019-04-16T09:23:30.557Z,11.10
2019-04-16T09:26:13.994Z,11.00
2019-04-16T09:29:01.491Z,10.87
2019-04-16T09:31:55.000Z,10.33
2019-04-16T09:35:02.045Z,10.33
2019-04-16T09:38:03.303Z,9.73
2019-04-16T09:40:49.044Z,9.83
2019-04-16T09:43:22.607Z,9.30
2019-04-16T09:45:54.859Z,9.47
2019-04-16T09:48:26.303Z,8.60
2019-04-16T09:50:57.519Z,13.27
2019-04-16T09:53:34.039Z,7.43
2019-04-16T09:56:23.442Z,7.57
2019-04-16T09:58:53.420Z,7.87
2019-04-16T10:01:28.158Z,7.80
2019-04-16T10:03:59.564Z,8.30
2019-04-16T10:06:31.001Z,8.40
2019-04-16T10:09:02.315Z,8.70
2019-04-16T10:11:35.762Z,7.97
2019-04-16T10:14:07.822Z,8.00
2019-04-16T10:16:39.276Z,8.40
2019-04-16T10:19:10.418Z,8.17
2019-04-16T10:21:41.742Z,8.83
2019-04-16T10:24:30.278Z,9.23
2019-04-16T10:27:04.377Z,8.63
2019-04-16T10:29:34.747Z,8.70
2019-04-16T10:32:05.996Z,8.87
2019-04-16T10:34:37.149Z,8.37
2019-04-16T10:37:08.377Z,8.30
2019-04-16T10:39:44.907Z,8.10
2019-04-16T10:42:34.058Z,8.97
2019-04-16T10:45:33.885Z,10.77
2019-04-16T10:48:33.266Z,11.20
2019-04-16T10:51:38.234Z,9.70
2019-04-16T10:54:21.239Z,11.03
2019-04-16T10:57:10.855Z,10.03
2019-04-16T10:59:45.408Z,8.00
2019-04-16T11:02:34.193Z,7.60
2019-04-16T11:05:15.234Z,7.60
2019-04-16T11:07:48.223Z,7.90
2019-04-16T11:10:19.284Z,8.17
2019-04-16T11:12:50.892Z,7.80
2019-04-16T11:15:23.749Z,6.77
2019-04-16T11:17:54.999Z,7.37
2019-04-16T11:20:26.639Z,6.67
2019-04-16T11:22:58.137Z,8.10
2019-04-16T11:25:29.258Z,8.23
2019-04-16T11:28:00.520Z,8.80
2019-04-16T11:30:38.097Z,9.57
2019-04-16T11:33:09.654Z,10.10
2019-04-16T11:35:40.860Z,9.97
2019-04-16T11:38:11.855Z,9.80
2019-04-16T11:40:42.962Z,8.03
2019-04-16T11:43:14.245Z,5.97
2019-04-16T11:45:45.269Z,4.70
2019-04-16T11:48:16.421Z,3.97
2019-04-16T11:50:47.869Z,4.20
2019-04-16T11:53:19.309Z,4.73
2019-04-16T11:55:50.902Z,5.12
2019-04-16T11:58:31.461Z,5.17
2019-04-16T12:01:22.995Z,16.17
2019-04-16T12:04:03.154Z,9.40
2019-04-16T12:06:53.165Z,5.80
2019-04-16T12:09:43.570Z,5.60
2019-04-16T12:12:39.480Z,4.80
2019-04-16T12:15:25.292Z,5.60
2019-04-16T12:18:09.516Z,4.17
2019-04-16T12:20:45.628Z,3.80
2019-04-16T12:23:38.653Z,3.63
2019-04-16T12:26:47.268Z,3.70
2019-04-16T12:29:35.198Z,3.83
2019-04-16T12:32:27.020Z,2.97
2019-04-16T12:35:31.049Z,3.40
2019-04-16T12:38:06.196Z,3.00
2019-04-16T12:40:45.350Z,3.57
2019-04-16T12:43:37.418Z,4.10
2019-04-16T12:46:30.402Z,4.20
2019-04-16T12:49:29.155Z,3.80
2019-04-16T12:52:22.476Z,3.50
2019-04-16T12:55:31.339Z,3.73
2019-04-16T12:58:10.446Z,3.33
2019-04-16T13:00:49.445Z,3.27
2019-04-16T13:03:39.406Z,3.23
2019-04-16T13:06:29.574Z,3.57
2019-04-16T13:09:18.140Z,3.80
2019-04-16T13:12:09.431Z,4.20
2019-04-16T13:15:01.066Z,3.87
2019-04-16T13:17:50.974Z,5.07
2019-04-16T13:20:38.784Z,4.70
2019-04-16T13:23:19.367Z,4.40
2019-04-16T13:25:59.054Z,4.27
2019-04-16T13:28:29.965Z,4.37
2019-04-16T13:31:01.172Z,3.93
2019-04-16T13:33:32.560Z,4.10
2019-04-16T13:36:04.192Z,4.90
2019-04-16T13:38:40.415Z,5.40
2019-04-16T13:41:10.886Z,3.60
2019-04-16T13:43:46.827Z,3.43
2019-04-16T13:46:18.196Z,3.47
2019-04-16T13:49:03.032Z,4.30
2019-04-16T13:51:34.545Z,3.90
2019-04-16T13:54:34.403Z,3.90
2019-04-16T13:57:10.635Z,4.20
2019-04-16T14:00:04.449Z,4.00
2019-04-16T14:02:41.730Z,4.10
2019-04-16T14:05:13.545Z,4.13
2019-04-16T14:07:44.949Z,4.53
2019-04-16T14:10:16.610Z,4.90
2019-04-16T14:12:48.011Z,4.00
2019-04-16T14:15:31.935Z,4.50
2019-04-16T14:17:58.989Z,4.60
2019-04-16T14:20:26.169Z,4.57
2019-04-16T14:22:57.365Z,4.60
2019-04-16T14:25:28.690Z,5.43
2019-04-16T14:28:03.179Z,6.33
2019-04-16T14:30:35.991Z,7.40
2019-04-16T14:33:07.639Z,7.93
2019-04-16T14:35:40.662Z,8.05
2019-04-16T14:38:13.434Z,6.60
2019-04-16T14:40:44.847Z,7.62
2019-04-16T14:43:17.828Z,7.43
2019-04-16T14:45:58.005Z,7.80
2019-04-16T14:48:24.582Z,8.33
2019-04-16T14:50:55.673Z,8.90
2019-04-16T14:53:39.213Z,8.53
2019-04-16T14:56:15.374Z,9.75
2019-04-16T14:59:11.106Z,8.60
2019-04-16T15:02:03.943Z,9.07
2019-04-16T15:04:56.938Z,7.73
2019-04-16T15:07:39.367Z,8.70
2019-04-16T15:10:35.772Z,7.63
2019-04-16T15:13:34.432Z,8.03
2019-04-16T15:16:30.693Z,7.73
2019-04-16T15:19:19.058Z,8.93
2019-04-16T15:22:08.135Z,9.00
2019-04-16T15:24:56.741Z,8.20
2019-04-16T15:27:59.225Z,8.87
2019-04-16T15:30:42.064Z,8.10
2019-04-16T15:33:20.859Z,7.73
2019-04-16T15:36:06.439Z,8.00
2019-04-16T15:38:55.559Z,8.40
2019-04-16T15:41:48.767Z,7.80
2019-04-16T15:44:35.474Z,8.10
2019-04-16T15:47:34.718Z,7.70
2019-04-16T15:50:10.600Z,7.33
2019-04-16T15:52:58.664Z,8.10
2019-04-16T15:55:47.110Z,7.50
2019-04-16T15:58:32.048Z,10.73
2019-04-16T16:01:19.738Z,7.97
2019-04-16T16:04:08.236Z,7.30
2019-04-16T16:06:52.308Z,7.40
2019-04-16T16:09:27.693Z,6.93
2019-04-16T16:12:12.932Z,7.47
2019-04-16T16:14:44.431Z,6.93
2019-04-16T16:17:15.483Z,7.10
2019-04-16T16:19:46.679Z,6.80
2019-04-16T16:22:17.689Z,7.17
2019-04-16T16:24:48.699Z,7.27
2019-04-16T16:27:19.849Z,8.57
2019-04-16T16:29:50.877Z,7.50
2019-04-16T16:32:24.054Z,8.73
2019-04-16T16:34:56.127Z,8.07
2019-04-16T16:37:27.472Z,11.00
2019-04-16T16:39:58.421Z,10.00
2019-04-16T16:42:29.843Z,10.30
2019-04-16T16:45:02.837Z,10.53
2019-04-16T16:47:41.928Z,11.40
2019-04-16T16:50:17.490Z,11.37
2019-04-16T16:53:04.402Z,11.57
2019-04-16T16:55:45.367Z,10.73
2019-04-16T16:58:40.986Z,13.50
2019-04-16T17:01:33.897Z,11.30
2019-04-16T17:04:14.411Z,12.40
2019-04-16T17:06:45.458Z,11.90
2019-04-16T17:09:23.831Z,15.40
2019-04-16T17:11:56.493Z,12.73
2019-04-16T17:14:28.398Z,13.30
2019-04-16T17:17:11.782Z,14.47
2019-04-16T17:19:32.713Z,17.57
2019-04-16T17:22:03.872Z,17.13
2019-04-16T17:24:35.008Z,16.50
2019-04-16T17:27:06.293Z,13.87
2019-04-16T17:29:37.321Z,13.47
2019-04-16T17:32:08.395Z,14.20
2019-04-16T17:34:39.959Z,14.47
2019-04-16T17:37:12.251Z,16.00
2019-04-16T17:39:54.663Z,15.17
2019-04-16T17:42:29.139Z,17.87
2019-04-16T17:45:25.045Z,15.40
2019-04-16T17:48:21.722Z,16.93
2019-04-16T17:51:07.129Z,18.67
2019-04-16T17:53:59.735Z,18.00
2019-04-16T17:56:58.743Z,16.30
2019-04-16T17:59:35.782Z,16.77
2019-04-16T18:02:28.069Z,15.37
2019-04-16T18:05:29.488Z,16.67
2019-04-16T18:08:34.618Z,14.90
2019-04-16T18:11:15.689Z,14.20
2019-04-16T18:14:11.368Z,12.50
2019-04-16T18:16:50.020Z,16.40
2019-04-16T18:19:39.204Z,13.63
2019-04-16T18:22:22.192Z,13.43
2019-04-16T18:25:21.287Z,12.57
2019-04-16T18:27:56.103Z,12.93
2019-04-16T18:30:48.859Z,11.80
2019-04-16T18:33:33.628Z,13.28
2019-04-16T18:36:29.676Z,12.17
2019-04-16T18:39:18.270Z,12.98
2019-04-16T18:42:02.909Z,12.30
2019-04-16T18:44:40.923Z,10.73
2019-04-16T18:47:25.018Z,12.88
2019-04-16T18:49:59.043Z,10.68
2019-04-16T18:52:30.644Z,10.15
2019-04-16T18:55:02.311Z,9.98
2019-04-16T18:57:35.531Z,9.63
2019-04-16T19:00:15.945Z,10.50
2019-04-16T19:02:47.077Z,10.07
2019-04-16T19:05:18.761Z,10.43
2019-04-16T19:07:49.877Z,10.20
2019-04-16T19:10:21.727Z,9.90
2019-04-16T19:12:54.487Z,11.03
2019-04-16T19:15:25.966Z,10.68
2019-04-16T19:17:57.765Z,11.15
2019-04-16T19:20:29.402Z,12.05
2019-04-16T19:23:00.719Z,10.68
2019-04-16T19:25:32.362Z,10.75
2019-04-16T19:28:05.991Z,10.30
2019-04-16T19:30:37.477Z,10.00
2019-04-16T19:33:08.803Z,10.55
2019-04-16T19:35:40.013Z,10.40
2019-04-16T19:38:11.256Z,10.50
2019-04-16T19:40:42.504Z,12.03
2019-04-16T19:43:13.994Z,11.63
2019-04-16T19:45:45.273Z,11.08
2019-04-16T19:48:19.524Z,10.28
2019-04-16T19:50:49.681Z,10.20
2019-04-16T19:53:20.941Z,10.75
2019-04-16T19:55:52.196Z,8.05
2019-04-16T19:58:23.481Z,8.00
2019-04-16T20:00:57.392Z,11.75
2019-04-16T20:03:30.546Z,7.97
2019-04-16T20:06:01.697Z,11.38
2019-04-16T20:08:36.730Z,9.55
2019-04-16T20:11:06.604Z,8.30
2019-04-16T20:13:38.204Z,7.47
2019-04-16T20:16:09.703Z,7.65
2019-04-16T20:18:50.838Z,8.53
2019-04-16T20:21:14.452Z,7.90
2019-04-16T20:23:45.894Z,7.05
2019-04-16T20:26:17.226Z,8.20
2019-04-16T20:28:49.208Z,8.10
2019-04-16T20:31:20.973Z,7.92
2019-04-16T20:33:52.490Z,7.37
2019-04-16T20:36:23.740Z,6.80
2019-04-16T20:38:55.480Z,7.67
2019-04-16T20:41:26.737Z,7.17
2019-04-16T20:43:58.019Z,7.72
2019-04-16T20:46:29.316Z,7.75
2019-04-16T20:49:09.703Z,7.40
2019-04-16T20:51:33.687Z,7.55
2019-04-16T20:54:05.179Z,7.28
2019-04-16T20:56:40.298Z,6.72
2019-04-16T20:59:09.778Z,7.05
2019-04-16T21:01:41.231Z,6.95
2019-04-16T21:04:12.452Z,7.33
2019-04-16T21:06:44.039Z,7.30
2019-04-16T21:09:15.531Z,7.53
2019-04-16T21:11:47.097Z,7.35
2019-04-16T21:14:18.882Z,7.45
2019-04-16T21:16:51.519Z,7.75
2019-04-16T21:19:25.051Z,6.97
2019-04-16T21:21:58.052Z,7.08
2019-04-16T21:24:29.192Z,7.37
2019-04-16T21:27:00.866Z,7.65
2019-04-16T21:29:35.965Z,7.40
2019-04-16T21:32:10.783Z,7.47
2019-04-16T21:34:58.701Z,7.72
2019-04-16T21:38:00.806Z,8.30
2019-04-16T21:40:32.196Z,7.55
2019-04-16T21:43:07.716Z,8.10
2019-04-16T21:45:36.718Z,8.08
2019-04-16T21:48:12.255Z,7.42
2019-04-16T21:50:44.589Z,7.95
2019-04-16T21:53:15.432Z,7.90
2019-04-16T21:55:46.655Z,7.92
2019-04-16T21:58:18.521Z,8.85
2019-04-16T22:01:05.198Z,7.95
2019-04-16T22:03:41.781Z,7.67
2019-04-16T22:06:11.150Z,7.67
2019-04-16T22:08:42.793Z,8.53
2019-04-16T22:11:13.991Z,8.55
2019-04-16T22:13:50.487Z,8.10
2019-04-16T22:16:18.400Z,7.83
2019-04-16T22:18:50.482Z,7.87
2019-04-16T22:21:21.884Z,8.13
2019-04-16T22:23:53.227Z,9.63
2019-04-16T22:26:24.575Z,10.72
2019-04-16T22:28:55.983Z,8.25
2019-04-16T22:31:28.320Z,8.43
2019-04-16T22:34:00.048Z,8.90
2019-04-16T22:36:31.491Z,8.35
2019-04-16T22:39:08.283Z,9.05
2019-04-16T22:41:47.034Z,8.28
2019-04-16T22:44:28.592Z,8.30
2019-04-16T22:47:07.907Z,7.53
2019-04-16T22:49:39.468Z,8.38
2019-04-16T22:52:12.473Z,9.00
2019-04-16T22:54:45.363Z,8.60
2019-04-16T22:57:17.075Z,8.28
2019-04-16T22:59:48.673Z,8.63
2019-04-16T23:02:25.648Z,9.50
2019-04-16T23:04:58.465Z,8.98
2019-04-16T23:07:30.327Z,9.15
2019-04-16T23:10:01.960Z,8.88
2019-04-16T23:12:34.638Z,9.20
2019-04-16T23:15:08.304Z,8.50
2019-04-16T23:17:42.806Z,9.63
2019-04-16T23:20:28.213Z,9.00
2019-04-16T23:22:47.666Z,9.43
2019-04-16T23:25:19.418Z,10.23
2019-04-16T23:27:50.847Z,9.20
2019-04-16T23:30:22.445Z,10.25
2019-04-16T23:32:59.009Z,9.45
2019-04-16T23:35:27.170Z,9.58
2019-04-16T23:38:00.670Z,8.83
2019-04-16T23:40:31.921Z,8.78
2019-04-16T23:43:25.780Z,9.83
2019-04-16T23:46:14.492Z,9.43
2019-04-16T23:49:11.934Z,9.05
2019-04-16T23:51:52.648Z,9.10
2019-04-16T23:54:29.784Z,7.95
2019-04-16T23:57:24.871Z,8.73
